QFA1914 YSSY-YBBN
Flight info
| Callsign | QFA1914 |
|---|---|
| Flight time | 1h 2m |
| Altitude | 37000 |
| Route | TESAT H252 OLSEM Y193 BANDA H252 BN |
| Aircraft | B789/H-SDE1E2E3FGHIJ2J3J4J5M1RWXY/LB1D1 |
Departure
| Time | 2026-05-06 20:42 |
|---|---|
| Airport | Sydney Kingsford Smith International Airport (YSSY) |
Arrival
| Time | 2026-05-06 21:45 |
|---|---|
| Airport | Brisbane International Airport (YBBN) |
| Time | Latitude | Longitude | Altitude | Speed | Heading |
|---|---|---|---|---|---|
| 2026-05-06 20:13 | -33.93859 | 151.16970 | 35 ft | 0 kts | 254° |
| 2026-05-06 20:29 | -33.93857 | 151.16982 | 34 ft | 4 kts | 259° |
| 2026-05-06 20:29 | -33.93854 | 151.17014 | 33 ft | 4 kts | 269° |
| 2026-05-06 20:29 | -33.93851 | 151.17044 | 33 ft | 4 kts | 236° |
| 2026-05-06 20:29 | -33.93835 | 151.17064 | 32 ft | 4 kts | 205° |
| 2026-05-06 20:30 | -33.93810 | 151.17069 | 35 ft | 4 kts | 170° |
| 2026-05-06 20:30 | -33.93783 | 151.17061 | 33 ft | 0 kts | 168° |
| 2026-05-06 20:32 | -33.93784 | 151.17061 | 33 ft | 1 kts | 168° |
| 2026-05-06 20:32 | -33.93820 | 151.17071 | 34 ft | 8 kts | 167° |
| 2026-05-06 20:32 | -33.93893 | 151.17093 | 35 ft | 13 kts | 166° |
| 2026-05-06 20:33 | -33.93947 | 151.17106 | 35 ft | 3 kts | 169° |
| 2026-05-06 20:33 | -33.93978 | 151.17118 | 35 ft | 4 kts | 143° |
| 2026-05-06 20:33 | -33.93984 | 151.17147 | 35 ft | 5 kts | 85° |
| 2026-05-06 20:33 | -33.93995 | 151.17223 | 35 ft | 11 kts | 129° |
| 2026-05-06 20:34 | -33.94073 | 151.17251 | 34 ft | 16 kts | 168° |
| 2026-05-06 20:34 | -33.94206 | 151.17286 | 34 ft | 22 kts | 166° |
| 2026-05-06 20:34 | -33.94326 | 151.17320 | 36 ft | 14 kts | 165° |
| 2026-05-06 20:34 | -33.94432 | 151.17347 | 36 ft | 19 kts | 169° |
| 2026-05-06 20:35 | -33.94563 | 151.17389 | 34 ft | 18 kts | 160° |
| 2026-05-06 20:35 | -33.94692 | 151.17416 | 36 ft | 23 kts | 171° |
| 2026-05-06 20:35 | -33.94849 | 151.17450 | 35 ft | 23 kts | 167° |
| 2026-05-06 20:35 | -33.94990 | 151.17489 | 35 ft | 20 kts | 166° |
| 2026-05-06 20:36 | -33.95114 | 151.17522 | 35 ft | 18 kts | 167° |
| 2026-05-06 20:36 | -33.95235 | 151.17552 | 34 ft | 18 kts | 169° |
| 2026-05-06 20:36 | -33.95356 | 151.17584 | 35 ft | 18 kts | 165° |
| 2026-05-06 20:36 | -33.95476 | 151.17614 | 35 ft | 18 kts | 171° |
| 2026-05-06 20:37 | -33.95595 | 151.17647 | 35 ft | 17 kts | 167° |
| 2026-05-06 20:37 | -33.95714 | 151.17674 | 36 ft | 17 kts | 169° |
| 2026-05-06 20:37 | -33.95832 | 151.17707 | 35 ft | 18 kts | 168° |
| 2026-05-06 20:37 | -33.95951 | 151.17737 | 35 ft | 18 kts | 168° |
| 2026-05-06 20:38 | -33.96071 | 151.17769 | 36 ft | 18 kts | 167° |
| 2026-05-06 20:38 | -33.96191 | 151.17800 | 35 ft | 18 kts | 167° |
| 2026-05-06 20:38 | -33.96307 | 151.17829 | 35 ft | 15 kts | 166° |
| 2026-05-06 20:38 | -33.96382 | 151.17855 | 36 ft | 10 kts | 158° |
| 2026-05-06 20:39 | -33.96432 | 151.17908 | 35 ft | 9 kts | 111° |
| 2026-05-06 20:39 | -33.96435 | 151.17931 | 35 ft | 0 kts | 86° |
| 2026-05-06 20:40 | -33.96432 | 151.17956 | 35 ft | 6 kts | 83° |
| 2026-05-06 20:40 | -33.96419 | 151.18025 | 35 ft | 10 kts | 72° |
| 2026-05-06 20:40 | -33.96401 | 151.18055 | 35 ft | 2 kts | 18° |
| 2026-05-06 20:40 | -33.96391 | 151.18054 | 34 ft | 0 kts | 350° |
| 2026-05-06 20:41 | -33.96243 | 151.18017 | 34 ft | 52 kts | 346° |
| 2026-05-06 20:41 | -33.95672 | 151.17868 | 34 ft | 114 kts | 348° |
| 2026-05-06 20:42 | -33.94725 | 151.17621 | 37 ft | 166 kts | 348° |
| 2026-05-06 20:42 | -33.93536 | 151.17329 | 562 ft | 173 kts | 351° |
| 2026-05-06 20:42 | -33.92365 | 151.16999 | 1364 ft | 173 kts | 347° |
| 2026-05-06 20:42 | -33.91177 | 151.16829 | 2062 ft | 177 kts | 12° |
| 2026-05-06 20:43 | -33.90152 | 151.17640 | 2694 ft | 183 kts | 49° |
| 2026-05-06 20:43 | -33.89345 | 151.18887 | 3294 ft | 196 kts | 51° |
| 2026-05-06 20:43 | -33.88511 | 151.20250 | 3896 ft | 209 kts | 52° |
| 2026-05-06 20:43 | -33.87645 | 151.21724 | 4523 ft | 222 kts | 53° |
| 2026-05-06 20:44 | -33.86740 | 151.23268 | 5102 ft | 237 kts | 52° |
| 2026-05-06 20:44 | -33.85745 | 151.24955 | 5669 ft | 256 kts | 53° |
| 2026-05-06 20:44 | -33.84695 | 151.26749 | 6432 ft | 266 kts | 53° |
| 2026-05-06 20:44 | -33.83619 | 151.28583 | 7294 ft | 271 kts | 52° |
| 2026-05-06 20:45 | -33.82522 | 151.30446 | 8138 ft | 276 kts | 52° |
| 2026-05-06 20:45 | -33.81401 | 151.32344 | 8968 ft | 281 kts | 52° |
| 2026-05-06 20:45 | -33.80262 | 151.34284 | 9802 ft | 287 kts | 52° |
| 2026-05-06 20:45 | -33.79092 | 151.36271 | 10453 ft | 298 kts | 52° |
| 2026-05-06 20:46 | -33.77863 | 151.38355 | 10919 ft | 314 kts | 52° |
| 2026-05-06 20:46 | -33.76569 | 151.40547 | 11392 ft | 329 kts | 52° |
| 2026-05-06 20:46 | -33.75231 | 151.42814 | 11835 ft | 345 kts | 52° |
| 2026-05-06 20:46 | -33.73815 | 151.45214 | 12263 ft | 360 kts | 52° |
| 2026-05-06 20:47 | -33.72339 | 151.47713 | 12632 ft | 375 kts | 52° |
| 2026-05-06 20:47 | -33.70637 | 151.50152 | 12898 ft | 387 kts | 39° |
| 2026-05-06 20:47 | -33.68419 | 151.52071 | 13156 ft | 400 kts | 29° |
| 2026-05-06 20:47 | -33.65970 | 151.53761 | 13512 ft | 410 kts | 26° |
| 2026-05-06 20:48 | -33.63477 | 151.55473 | 14030 ft | 416 kts | 28° |
| 2026-05-06 20:48 | -33.61063 | 151.57423 | 14541 ft | 421 kts | 33° |
| 2026-05-06 20:48 | -33.58708 | 151.59455 | 15066 ft | 424 kts | 32° |
| 2026-05-06 20:48 | -33.56169 | 151.61257 | 15499 ft | 425 kts | 21° |
| 2026-05-06 20:49 | -33.53365 | 151.62364 | 16000 ft | 425 kts | 12° |
| 2026-05-06 20:49 | -33.50478 | 151.63162 | 16478 ft | 427 kts | 9° |
| 2026-05-06 20:49 | -33.47546 | 151.63936 | 16694 ft | 437 kts | 11° |
| 2026-05-06 20:49 | -33.44601 | 151.64981 | 16969 ft | 445 kts | 15° |
| 2026-05-06 20:50 | -33.41659 | 151.66191 | 17397 ft | 448 kts | 16° |
| 2026-05-06 20:50 | -33.38676 | 151.67307 | 17790 ft | 450 kts | 13° |
| 2026-05-06 20:50 | -33.35649 | 151.68313 | 18171 ft | 453 kts | 13° |
| 2026-05-06 20:50 | -33.32650 | 151.69347 | 18517 ft | 456 kts | 14° |
| 2026-05-06 20:51 | -33.29606 | 151.70473 | 18842 ft | 459 kts | 14° |
| 2026-05-06 20:51 | -33.26548 | 151.71599 | 19181 ft | 461 kts | 14° |
| 2026-05-06 20:51 | -33.23468 | 151.72686 | 19511 ft | 463 kts | 13° |
| 2026-05-06 20:51 | -33.20369 | 151.73773 | 19835 ft | 465 kts | 14° |
| 2026-05-06 20:52 | -33.17266 | 151.74885 | 20149 ft | 467 kts | 14° |
| 2026-05-06 20:52 | -33.14151 | 151.76008 | 20448 ft | 468 kts | 14° |
| 2026-05-06 20:52 | -33.11020 | 151.77124 | 20727 ft | 470 kts | 13° |
| 2026-05-06 20:52 | -33.07880 | 151.78236 | 20996 ft | 472 kts | 13° |
| 2026-05-06 20:53 | -33.04771 | 151.79341 | 21277 ft | 473 kts | 13° |
| 2026-05-06 20:53 | -33.01616 | 151.80467 | 21532 ft | 474 kts | 13° |
| 2026-05-06 20:53 | -32.98467 | 151.81591 | 21777 ft | 476 kts | 14° |
| 2026-05-06 20:53 | -32.95296 | 151.82729 | 22037 ft | 477 kts | 14° |
| 2026-05-06 20:54 | -32.92109 | 151.83859 | 22284 ft | 479 kts | 13° |
| 2026-05-06 20:54 | -32.88911 | 151.84987 | 22526 ft | 480 kts | 13° |
| 2026-05-06 20:54 | -32.85702 | 151.86124 | 22753 ft | 482 kts | 13° |
| 2026-05-06 20:54 | -32.82529 | 151.87251 | 22984 ft | 483 kts | 13° |
| 2026-05-06 20:55 | -32.79348 | 151.88377 | 23197 ft | 484 kts | 13° |
| 2026-05-06 20:55 | -32.76117 | 151.89518 | 23414 ft | 485 kts | 13° |
| 2026-05-06 20:55 | -32.72874 | 151.90663 | 23606 ft | 487 kts | 13° |
| 2026-05-06 20:55 | -32.69622 | 151.91812 | 23771 ft | 488 kts | 13° |
| 2026-05-06 20:56 | -32.66367 | 151.92961 | 23940 ft | 489 kts | 13° |
| 2026-05-06 20:56 | -32.63099 | 151.94113 | 24089 ft | 490 kts | 13° |
| 2026-05-06 20:56 | -32.59827 | 151.95265 | 24239 ft | 491 kts | 13° |
| 2026-05-06 20:56 | -32.56550 | 151.96418 | 24395 ft | 492 kts | 13° |
| 2026-05-06 20:57 | -32.53308 | 151.97559 | 24542 ft | 493 kts | 12° |
| 2026-05-06 20:57 | -32.50019 | 151.98715 | 24689 ft | 494 kts | 12° |
| 2026-05-06 20:57 | -32.46725 | 151.99871 | 24823 ft | 495 kts | 12° |
| 2026-05-06 20:57 | -32.43418 | 152.01033 | 24943 ft | 496 kts | 12° |
| 2026-05-06 20:58 | -32.40108 | 152.02193 | 25092 ft | 497 kts | 12° |
| 2026-05-06 20:58 | -32.36791 | 152.03355 | 25229 ft | 498 kts | 12° |
| 2026-05-06 20:58 | -32.33463 | 152.04520 | 25368 ft | 499 kts | 12° |
| 2026-05-06 20:58 | -32.30133 | 152.05685 | 25510 ft | 500 kts | 12° |
| 2026-05-06 20:59 | -32.26794 | 152.06853 | 25655 ft | 501 kts | 12° |
| 2026-05-06 20:59 | -32.23489 | 152.08006 | 25732 ft | 503 kts | 12° |
| 2026-05-06 20:59 | -32.20127 | 152.09181 | 25843 ft | 504 kts | 11° |
| 2026-05-06 20:59 | -32.16760 | 152.10355 | 26008 ft | 504 kts | 11° |
| 2026-05-06 21:00 | -32.13398 | 152.11527 | 26194 ft | 504 kts | 11° |
| 2026-05-06 21:00 | -32.10038 | 152.12696 | 26389 ft | 504 kts | 11° |
| 2026-05-06 21:00 | -32.06678 | 152.13865 | 26590 ft | 503 kts | 11° |
| 2026-05-06 21:00 | -32.03320 | 152.15033 | 26782 ft | 503 kts | 10° |
| 2026-05-06 21:01 | -31.99964 | 152.16200 | 26989 ft | 503 kts | 10° |
| 2026-05-06 21:01 | -31.96655 | 152.17350 | 27233 ft | 502 kts | 10° |
| 2026-05-06 21:01 | -31.93305 | 152.18512 | 27473 ft | 502 kts | 9° |
| 2026-05-06 21:01 | -31.89959 | 152.19670 | 27723 ft | 501 kts | 9° |
| 2026-05-06 21:02 | -31.86614 | 152.20829 | 27982 ft | 501 kts | 9° |
| 2026-05-06 21:02 | -31.83273 | 152.21986 | 28242 ft | 500 kts | 9° |
| 2026-05-06 21:02 | -31.79936 | 152.23140 | 28512 ft | 500 kts | 9° |
| 2026-05-06 21:02 | -31.76598 | 152.24294 | 28748 ft | 500 kts | 9° |
| 2026-05-06 21:03 | -31.73267 | 152.25444 | 29035 ft | 499 kts | 9° |
| 2026-05-06 21:03 | -31.66615 | 152.27738 | 29347 ft | 502 kts | 9° |
| 2026-05-06 21:03 | -31.63269 | 152.28893 | 29627 ft | 502 kts | 8° |
| 2026-05-06 21:04 | -31.59925 | 152.30043 | 29901 ft | 502 kts | 8° |
| 2026-05-06 21:04 | -31.56570 | 152.31196 | 30152 ft | 502 kts | 8° |
| 2026-05-06 21:04 | -31.53218 | 152.32349 | 30374 ft | 502 kts | 8° |
| 2026-05-06 21:04 | -31.49861 | 152.33503 | 30602 ft | 503 kts | 8° |
| 2026-05-06 21:05 | -31.46500 | 152.34657 | 30833 ft | 503 kts | 8° |
| 2026-05-06 21:05 | -31.43140 | 152.35809 | 31069 ft | 503 kts | 8° |
| 2026-05-06 21:05 | -31.39826 | 152.36945 | 31302 ft | 503 kts | 8° |
| 2026-05-06 21:05 | -31.36466 | 152.38096 | 31546 ft | 503 kts | 8° |
| 2026-05-06 21:06 | -31.33106 | 152.39247 | 31786 ft | 503 kts | 8° |
| 2026-05-06 21:06 | -31.29743 | 152.40396 | 32009 ft | 503 kts | 8° |
| 2026-05-06 21:06 | -31.26384 | 152.41544 | 32256 ft | 503 kts | 8° |
| 2026-05-06 21:06 | -31.23023 | 152.42692 | 32498 ft | 503 kts | 8° |
| 2026-05-06 21:07 | -31.19661 | 152.43839 | 32753 ft | 503 kts | 8° |
| 2026-05-06 21:07 | -31.16295 | 152.44988 | 33004 ft | 503 kts | 8° |
| 2026-05-06 21:07 | -31.12984 | 152.46116 | 33257 ft | 503 kts | 8° |
| 2026-05-06 21:07 | -31.09624 | 152.47258 | 33504 ft | 502 kts | 8° |
| 2026-05-06 21:08 | -31.06280 | 152.48398 | 33745 ft | 501 kts | 8° |
| 2026-05-06 21:08 | -31.02935 | 152.49535 | 34005 ft | 501 kts | 8° |
| 2026-05-06 21:08 | -30.99590 | 152.50671 | 34245 ft | 500 kts | 8° |
| 2026-05-06 21:08 | -30.96247 | 152.51805 | 34464 ft | 500 kts | 8° |
| 2026-05-06 21:09 | -30.92913 | 152.52937 | 34690 ft | 499 kts | 8° |
| 2026-05-06 21:09 | -30.89578 | 152.54068 | 34910 ft | 499 kts | 8° |
| 2026-05-06 21:09 | -30.86287 | 152.55181 | 35059 ft | 500 kts | 8° |
| 2026-05-06 21:10 | -30.79589 | 152.57455 | 35089 ft | 502 kts | 8° |
| 2026-05-06 21:10 | -30.72921 | 152.59891 | 35092 ft | 501 kts | 9° |
| 2026-05-06 21:11 | -30.66264 | 152.62289 | 35101 ft | 502 kts | 9° |
| 2026-05-06 21:11 | -30.59595 | 152.64720 | 35096 ft | 502 kts | 9° |
| 2026-05-06 21:12 | -30.52970 | 152.67107 | 35107 ft | 502 kts | 9° |
| 2026-05-06 21:12 | -30.46300 | 152.69523 | 35108 ft | 503 kts | 9° |
| 2026-05-06 21:13 | -30.39628 | 152.71927 | 35101 ft | 501 kts | 8° |
| 2026-05-06 21:13 | -30.32974 | 152.74326 | 35111 ft | 501 kts | 9° |
| 2026-05-06 21:14 | -30.26351 | 152.76706 | 35113 ft | 502 kts | 9° |
| 2026-05-06 21:14 | -30.19675 | 152.79107 | 35111 ft | 502 kts | 9° |
| 2026-05-06 21:15 | -30.13015 | 152.81495 | 35104 ft | 501 kts | 8° |
| 2026-05-06 21:15 | -30.06400 | 152.83864 | 35103 ft | 501 kts | 8° |
| 2026-05-06 21:16 | -29.99736 | 152.86248 | 35102 ft | 502 kts | 8° |
| 2026-05-06 21:16 | -29.93061 | 152.88632 | 35103 ft | 503 kts | 8° |
| 2026-05-06 21:17 | -29.86382 | 152.91015 | 35100 ft | 503 kts | 8° |
| 2026-05-06 21:17 | -29.79706 | 152.93393 | 35100 ft | 502 kts | 8° |
| 2026-05-06 21:18 | -29.73078 | 152.95750 | 35099 ft | 502 kts | 8° |
| 2026-05-06 21:18 | -29.66414 | 152.98118 | 35096 ft | 501 kts | 8° |
| 2026-05-06 21:19 | -29.59743 | 153.00482 | 35100 ft | 502 kts | 8° |
| 2026-05-06 21:19 | -29.53032 | 153.02308 | 35094 ft | 489 kts | 359° |
| 2026-05-06 21:20 | -29.46353 | 153.03055 | 35099 ft | 484 kts | 356° |
| 2026-05-06 21:20 | -29.39640 | 153.04276 | 35096 ft | 493 kts | 2° |
| 2026-05-06 21:21 | -29.32885 | 153.05561 | 35097 ft | 490 kts | 359° |
| 2026-05-06 21:21 | -29.26127 | 153.06713 | 35102 ft | 493 kts | 0° |
| 2026-05-06 21:22 | -29.19411 | 153.07982 | 35077 ft | 492 kts | 360° |
| 2026-05-06 21:22 | -29.12651 | 153.09159 | 35107 ft | 491 kts | 360° |
| 2026-05-06 21:23 | -29.05913 | 153.10398 | 35101 ft | 490 kts | 359° |
| 2026-05-06 21:23 | -28.99252 | 153.11586 | 35100 ft | 479 kts | 359° |
| 2026-05-06 21:24 | -28.92738 | 153.12756 | 35096 ft | 475 kts | 359° |
| 2026-05-06 21:24 | -28.86177 | 153.13927 | 35099 ft | 479 kts | 359° |
| 2026-05-06 21:25 | -28.79596 | 153.15110 | 35097 ft | 479 kts | 359° |
| 2026-05-06 21:25 | -28.73044 | 153.16283 | 34400 ft | 474 kts | 359° |
| 2026-05-06 21:25 | -28.69780 | 153.16860 | 33478 ft | 475 kts | 360° |
| 2026-05-06 21:26 | -28.66568 | 153.17433 | 32613 ft | 472 kts | 360° |
| 2026-05-06 21:26 | -28.63333 | 153.18015 | 31805 ft | 470 kts | 0° |
| 2026-05-06 21:26 | -28.60110 | 153.18590 | 30980 ft | 468 kts | 1° |
| 2026-05-06 21:26 | -28.56885 | 153.19160 | 30119 ft | 470 kts | 1° |
| 2026-05-06 21:27 | -28.53643 | 153.19734 | 29132 ft | 473 kts | 2° |
| 2026-05-06 21:27 | -28.50392 | 153.20317 | 28223 ft | 472 kts | 2° |
| 2026-05-06 21:27 | -28.47166 | 153.20896 | 27348 ft | 467 kts | 2° |
| 2026-05-06 21:27 | -28.43965 | 153.21464 | 26497 ft | 463 kts | 2° |
| 2026-05-06 21:28 | -28.40793 | 153.22024 | 25651 ft | 459 kts | 2° |
| 2026-05-06 21:28 | -28.37690 | 153.22574 | 24836 ft | 456 kts | 3° |
| 2026-05-06 21:28 | -28.34564 | 153.23130 | 24016 ft | 453 kts | 3° |
| 2026-05-06 21:28 | -28.31465 | 153.23680 | 23124 ft | 450 kts | 4° |
| 2026-05-06 21:29 | -28.28391 | 153.24225 | 22253 ft | 444 kts | 4° |
| 2026-05-06 21:29 | -28.25355 | 153.24762 | 21431 ft | 438 kts | 4° |
| 2026-05-06 21:29 | -28.22363 | 153.25292 | 20661 ft | 433 kts | 4° |
| 2026-05-06 21:29 | -28.19431 | 153.25813 | 20422 ft | 419 kts | 4° |
| 2026-05-06 21:30 | -28.16512 | 153.26325 | 20124 ft | 436 kts | 4° |
| 2026-05-06 21:30 | -28.13495 | 153.26848 | 19553 ft | 448 kts | 4° |
| 2026-05-06 21:30 | -28.10425 | 153.27477 | 18907 ft | 449 kts | 7° |
| 2026-05-06 21:30 | -28.07424 | 153.28457 | 18221 ft | 450 kts | 15° |
| 2026-05-06 21:31 | -28.04597 | 153.29997 | 17438 ft | 452 kts | 27° |
| 2026-05-06 21:31 | -28.02109 | 153.32179 | 16661 ft | 454 kts | 40° |
| 2026-05-06 21:31 | -27.99900 | 153.34681 | 15909 ft | 444 kts | 37° |
| 2026-05-06 21:31 | -27.97353 | 153.36573 | 15181 ft | 434 kts | 24° |
| 2026-05-06 21:32 | -27.94560 | 153.37752 | 14460 ft | 424 kts | 12° |
| 2026-05-06 21:32 | -27.88829 | 153.38071 | 12998 ft | 411 kts | 352° |
| 2026-05-06 21:32 | -27.86038 | 153.37689 | 12352 ft | 398 kts | 351° |
| 2026-05-06 21:33 | -27.83329 | 153.37375 | 11821 ft | 384 kts | 353° |
| 2026-05-06 21:33 | -27.80712 | 153.37137 | 11366 ft | 370 kts | 353° |
| 2026-05-06 21:33 | -27.78194 | 153.36895 | 10959 ft | 356 kts | 353° |
| 2026-05-06 21:33 | -27.75780 | 153.36633 | 10569 ft | 336 kts | 352° |
| 2026-05-06 21:34 | -27.73577 | 153.36397 | 10179 ft | 299 kts | 352° |
| 2026-05-06 21:34 | -27.71616 | 153.36196 | 9872 ft | 271 kts | 352° |
| 2026-05-06 21:34 | -27.69714 | 153.35995 | 9614 ft | 282 kts | 352° |
| 2026-05-06 21:34 | -27.67786 | 153.35791 | 9319 ft | 276 kts | 352° |
| 2026-05-06 21:35 | -27.65870 | 153.35593 | 9037 ft | 278 kts | 352° |
| 2026-05-06 21:35 | -27.63940 | 153.35394 | 8748 ft | 278 kts | 353° |
| 2026-05-06 21:35 | -27.62015 | 153.35196 | 8479 ft | 277 kts | 353° |
| 2026-05-06 21:35 | -27.60096 | 153.34996 | 8209 ft | 277 kts | 353° |
| 2026-05-06 21:36 | -27.58196 | 153.34799 | 7924 ft | 270 kts | 353° |
| 2026-05-06 21:36 | -27.56312 | 153.34603 | 7659 ft | 274 kts | 353° |
| 2026-05-06 21:36 | -27.54410 | 153.34406 | 7396 ft | 275 kts | 353° |
| 2026-05-06 21:36 | -27.52536 | 153.34211 | 7133 ft | 274 kts | 354° |
| 2026-05-06 21:37 | -27.50641 | 153.34016 | 6864 ft | 274 kts | 354° |
| 2026-05-06 21:37 | -27.48770 | 153.33822 | 6591 ft | 267 kts | 354° |
| 2026-05-06 21:37 | -27.46905 | 153.33629 | 6311 ft | 271 kts | 354° |
| 2026-05-06 21:37 | -27.45026 | 153.33435 | 6011 ft | 271 kts | 354° |
| 2026-05-06 21:38 | -27.43145 | 153.33240 | 5734 ft | 272 kts | 355° |
| 2026-05-06 21:38 | -27.41275 | 153.33047 | 5437 ft | 266 kts | 355° |
| 2026-05-06 21:38 | -27.39429 | 153.32856 | 5158 ft | 267 kts | 355° |
| 2026-05-06 21:38 | -27.37634 | 153.32671 | 4880 ft | 259 kts | 355° |
| 2026-05-06 21:39 | -27.35865 | 153.32488 | 4595 ft | 252 kts | 355° |
| 2026-05-06 21:39 | -27.34116 | 153.32305 | 4495 ft | 251 kts | 355° |
| 2026-05-06 21:39 | -27.32362 | 153.32123 | 4395 ft | 255 kts | 355° |
| 2026-05-06 21:39 | -27.30588 | 153.31940 | 4281 ft | 254 kts | 355° |
| 2026-05-06 21:40 | -27.28882 | 153.31590 | 4098 ft | 253 kts | 340° |
| 2026-05-06 21:40 | -27.27505 | 153.30358 | 3762 ft | 257 kts | 305° |
| 2026-05-06 21:40 | -27.26887 | 153.28525 | 3425 ft | 247 kts | 279° |
| 2026-05-06 21:40 | -27.26615 | 153.26673 | 3158 ft | 234 kts | 275° |
| 2026-05-06 21:41 | -27.26846 | 153.24930 | 2784 ft | 224 kts | 244° |
| 2026-05-06 21:41 | -27.27591 | 153.23513 | 2524 ft | 202 kts | 233° |
| 2026-05-06 21:41 | -27.28326 | 153.22274 | 2321 ft | 180 kts | 233° |
| 2026-05-06 21:41 | -27.28976 | 153.21144 | 2117 ft | 167 kts | 232° |
| 2026-05-06 21:42 | -27.29599 | 153.20047 | 1935 ft | 166 kts | 232° |
| 2026-05-06 21:42 | -27.30206 | 153.18972 | 1756 ft | 160 kts | 231° |
| 2026-05-06 21:42 | -27.30806 | 153.17929 | 1566 ft | 158 kts | 231° |
| 2026-05-06 21:42 | -27.31472 | 153.16981 | 1352 ft | 150 kts | 220° |
| 2026-05-06 21:43 | -27.32332 | 153.16356 | 1150 ft | 146 kts | 202° |
| 2026-05-06 21:43 | -27.33216 | 153.15858 | 999 ft | 142 kts | 200° |
| 2026-05-06 21:43 | -27.34103 | 153.15357 | 828 ft | 148 kts | 201° |
| 2026-05-06 21:43 | -27.35060 | 153.14816 | 653 ft | 160 kts | 204° |
| 2026-05-06 21:44 | -27.36072 | 153.14235 | 445 ft | 165 kts | 202° |
| 2026-05-06 21:44 | -27.37092 | 153.13643 | 204 ft | 163 kts | 203° |
| 2026-05-06 21:44 | -27.38067 | 153.13081 | 29 ft | 145 kts | 203° |
| 2026-05-06 21:44 | -27.38792 | 153.12673 | 26 ft | 86 kts | 207° |
| 2026-05-06 21:45 | -27.39208 | 153.12435 | 29 ft | 59 kts | 207° |
| 2026-05-06 21:45 | -27.39506 | 153.12264 | 31 ft | 33 kts | 206° |
| 2026-05-06 21:45 | -27.39583 | 153.12157 | 28 ft | 14 kts | 281° |
| 2026-05-06 21:45 | -27.39543 | 153.12052 | 28 ft | 15 kts | 299° |
| 2026-05-06 21:46 | -27.39519 | 153.12009 | 28 ft | 1 kts | 302° |
| 2026-05-06 21:46 | -27.39510 | 153.11986 | 29 ft | 8 kts | 292° |
| 2026-05-06 21:46 | -27.39462 | 153.11937 | 27 ft | 11 kts | 353° |
| 2026-05-06 21:46 | -27.39377 | 153.11974 | 24 ft | 16 kts | 26° |
| 2026-05-06 21:47 | -27.39263 | 153.12038 | 26 ft | 21 kts | 28° |
| 2026-05-06 21:47 | -27.39131 | 153.12115 | 26 ft | 18 kts | 28° |
| 2026-05-06 21:47 | -27.39059 | 153.12125 | 26 ft | 10 kts | 321° |
| 2026-05-06 21:47 | -27.39006 | 153.12040 | 29 ft | 16 kts | 302° |
| 2026-05-06 21:48 | -27.38950 | 153.12007 | 26 ft | 8 kts | 11° |
| 2026-05-06 21:48 | -27.38925 | 153.12018 | 26 ft | 1 kts | 356° |
| 2026-05-06 21:48 | -27.38916 | 153.12013 | 26 ft | 3 kts | 336° |
| 2026-05-06 21:48 | -27.38886 | 153.11998 | 26 ft | 7 kts | 338° |
| 2026-05-06 21:49 | -27.38876 | 153.11993 | 27 ft | 0 kts | 339° |